Meadows Field
KBFL : now visible

Airfield :











YOU CAN JOIN US ON...

 
LOGIN :

Register | Disclaimer

   EN    FR    IT 

 









Legend :    VFR   Marginal VFR   IFR   Intensive IFR   Very Intensive IFR
Visi :
Ceiling :
>= 8 km
>= 3000ft
5 to 8 km
1000 to 3000 ft
1500m to 5 km
500 to 1000 ft
800 to 1500m
200 to 500 ft
< 800m
< 200 ft
Symbols :   Thunderstorms  Fog  Heavy snow  Heavy precipitations  Wind > 20 kt






- Airport Elevation : 510 ft
- IATA code : BFL


KBFL - Meadows Field

CURRENT METAR :
  • 260654Z 10003KT 8SM CLR 10/07 A3014 RMK AO2 SLP203 T01000072

EXPIRED METARs :
  • 260554Z 14004KT 8SM CLR 11/08 A3013 RMK AO2 SLP201 T01110078 10178 20106 53005
  • 260454Z 07003KT 9SM CLR 11/07 A3013 RMK AO2 SLP200 T01110072

TAF KBFL
Valid from the 26 at 06:00 until the 27 at 06:00 UTC


260521Z 2606/2706 09003KT P6SM FEW250
FM260900 10003KT P6SM FEW050 SCT250
FM261200 11003KT P6SM FEW025 SCT050 BKN250
FM261500 23003KT P6SM SCT025 BKN050 OVC250
FM261900 25004KT P6SM BKN025 OVC050
FM270000 33004KT P6SM SCT025 BKN050



MET'MAP, your aeronautical weather chart ! - Copyright ORBIFLY December 2007 - Disclaimer

ORBIFLY MET'MAP TEAM :

Programming & Development : Alexandra Zaïnal
Concept & original design : Baudouin d'Aumeries
Assistance for programming : Marc-Olivier Méhu
Technical & hardware support : Manuel Goepfert

Contact : metmap@orbifly.com




SOURCES & CREDITS :

   NOAA       Earth
Advisory